sensor_id;sensor_type;location;lat;lon;timestamp;P1;durP1;ratioP1;P2;durP2;ratioP2
18917;SDS011;9591;52.742;13.650;2022-08-19T00:00:54;16.20;;;10.23;;
18917;SDS011;9591;52.742;13.650;2022-08-19T00:03:42;16.50;;;10.63;;
18917;SDS011;9591;52.742;13.650;2022-08-19T00:06:28;16.13;;;10.47;;
18917;SDS011;9591;52.742;13.650;2022-08-19T00:09:17;15.00;;;10.93;;
18917;SDS011;9591;52.742;13.650;2022-08-19T00:12:05;16.30;;;10.50;;
18917;SDS011;9591;52.742;13.650;2022-08-19T00:14:52;15.37;;;9.87;;
18917;SDS011;9591;52.742;13.650;2022-08-19T00:17:41;15.87;;;9.80;;
18917;SDS011;9591;52.742;13.650;2022-08-19T00:20:31;14.67;;;9.67;;
18917;SDS011;9591;52.742;13.650;2022-08-19T00:23:17;16.13;;;10.40;;
18917;SDS011;9591;52.742;13.650;2022-08-19T00:26:04;15.50;;;10.57;;
18917;SDS011;9591;52.742;13.650;2022-08-19T00:28:51;15.67;;;10.73;;
18917;SDS011;9591;52.742;13.650;2022-08-19T00:31:38;12.93;;;9.90;;
18917;SDS011;9591;52.742;13.650;2022-08-19T00:34:29;17.07;;;10.33;;
18917;SDS011;9591;52.742;13.650;2022-08-19T00:37:16;16.10;;;9.70;;
18917;SDS011;9591;52.742;13.650;2022-08-19T00:40:05;19.23;;;10.10;;
18917;SDS011;9591;52.742;13.650;2022-08-19T00:42:55;18.83;;;10.27;;
18917;SDS011;9591;52.742;13.650;2022-08-19T00:45:42;19.30;;;10.70;;
18917;SDS011;9591;52.742;13.650;2022-08-19T00:48:29;16.83;;;10.03;;
18917;SDS011;9591;52.742;13.650;2022-08-19T00:51:17;14.17;;;10.07;;
18917;SDS011;9591;52.742;13.650;2022-08-19T00:54:04;18.77;;;9.80;;
18917;SDS011;9591;52.742;13.650;2022-08-19T00:56:51;20.73;;;10.07;;
18917;SDS011;9591;52.742;13.650;2022-08-19T00:59:40;16.80;;;10.10;;
18917;SDS011;9591;52.742;13.650;2022-08-19T01:02:46;16.77;;;10.10;;
18917;SDS011;9591;52.742;13.650;2022-08-19T01:05:33;25.60;;;10.83;;
18917;SDS011;9591;52.742;13.650;2022-08-19T01:08:22;18.97;;;10.50;;
18917;SDS011;9591;52.742;13.650;2022-08-19T01:11:09;15.70;;;10.00;;
18917;SDS011;9591;52.742;13.650;2022-08-19T01:13:56;17.23;;;10.27;;
18917;SDS011;9591;52.742;13.650;2022-08-19T01:16:44;19.23;;;11.23;;
18917;SDS011;9591;52.742;13.650;2022-08-19T01:19:33;17.30;;;10.67;;
18917;SDS011;9591;52.742;13.650;2022-08-19T01:22:29;22.53;;;10.80;;
18917;SDS011;9591;52.742;13.650;2022-08-19T01:25:21;21.33;;;10.83;;
18917;SDS011;9591;52.742;13.650;2022-08-19T01:28:17;17.17;;;10.77;;
18917;SDS011;9591;52.742;13.650;2022-08-19T01:31:20;16.40;;;10.83;;
18917;SDS011;9591;52.742;13.650;2022-08-19T01:34:11;16.50;;;10.53;;
18917;SDS011;9591;52.742;13.650;2022-08-19T01:36:59;19.23;;;11.23;;
18917;SDS011;9591;52.742;13.650;2022-08-19T01:39:49;16.03;;;11.03;;
18917;SDS011;9591;52.742;13.650;2022-08-19T01:42:36;20.60;;;11.57;;
18917;SDS011;9591;52.742;13.650;2022-08-19T01:45:27;20.77;;;11.37;;
18917;SDS011;9591;52.742;13.650;2022-08-19T01:48:16;16.47;;;10.97;;
18917;SDS011;9591;52.742;13.650;2022-08-19T01:51:06;19.60;;;10.90;;
18917;SDS011;9591;52.742;13.650;2022-08-19T01:53:57;18.97;;;11.90;;
18917;SDS011;9591;52.742;13.650;2022-08-19T01:56:49;19.50;;;10.30;;
18917;SDS011;9591;52.742;13.650;2022-08-19T01:59:37;15.30;;;9.70;;
18917;SDS011;9591;52.742;13.650;2022-08-19T02:02:28;18.43;;;11.07;;
18917;SDS011;9591;52.742;13.650;2022-08-19T02:05:14;19.03;;;10.37;;
18917;SDS011;9591;52.742;13.650;2022-08-19T02:08:03;20.33;;;10.40;;
18917;SDS011;9591;52.742;13.650;2022-08-19T02:10:50;19.37;;;10.90;;
18917;SDS011;9591;52.742;13.650;2022-08-19T02:13:38;20.60;;;11.00;;
18917;SDS011;9591;52.742;13.650;2022-08-19T02:16:25;19.80;;;10.87;;
18917;SDS011;9591;52.742;13.650;2022-08-19T02:19:13;18.23;;;9.40;;
18917;SDS011;9591;52.742;13.650;2022-08-19T02:21:59;20.53;;;9.57;;
18917;SDS011;9591;52.742;13.650;2022-08-19T02:24:46;13.70;;;9.13;;
18917;SDS011;9591;52.742;13.650;2022-08-19T02:27:33;14.13;;;9.93;;
18917;SDS011;9591;52.742;13.650;2022-08-19T02:30:22;13.60;;;9.77;;
18917;SDS011;9591;52.742;13.650;2022-08-19T02:33:09;15.13;;;9.83;;
18917;SDS011;9591;52.742;13.650;2022-08-19T02:35:56;16.93;;;9.90;;
18917;SDS011;9591;52.742;13.650;2022-08-19T02:38:43;17.10;;;10.13;;
18917;SDS011;9591;52.742;13.650;2022-08-19T02:41:39;13.93;;;9.50;;
18917;SDS011;9591;52.742;13.650;2022-08-19T02:44:25;12.10;;;8.73;;
18917;SDS011;9591;52.742;13.650;2022-08-19T02:47:17;19.43;;;10.00;;
18917;SDS011;9591;52.742;13.650;2022-08-19T02:50:04;18.90;;;9.40;;
18917;SDS011;9591;52.742;13.650;2022-08-19T02:52:52;15.47;;;9.20;;
18917;SDS011;9591;52.742;13.650;2022-08-19T02:55:42;15.17;;;9.37;;
18917;SDS011;9591;52.742;13.650;2022-08-19T02:58:30;15.30;;;8.73;;
18917;SDS011;9591;52.742;13.650;2022-08-19T03:01:21;12.83;;;8.07;;
18917;SDS011;9591;52.742;13.650;2022-08-19T03:04:11;16.47;;;9.00;;
18917;SDS011;9591;52.742;13.650;2022-08-19T03:06:59;16.00;;;8.17;;
18917;SDS011;9591;52.742;13.650;2022-08-19T03:09:55;19.63;;;9.07;;
18917;SDS011;9591;52.742;13.650;2022-08-19T03:12:41;13.00;;;8.90;;
18917;SDS011;9591;52.742;13.650;2022-08-19T03:15:29;12.23;;;8.13;;
18917;SDS011;9591;52.742;13.650;2022-08-19T03:18:16;14.43;;;8.43;;
18917;SDS011;9591;52.742;13.650;2022-08-19T03:21:04;12.87;;;8.73;;
18917;SDS011;9591;52.742;13.650;2022-08-19T03:23:56;14.47;;;9.00;;
18917;SDS011;9591;52.742;13.650;2022-08-19T03:26:45;14.70;;;8.37;;
18917;SDS011;9591;52.742;13.650;2022-08-19T03:29:34;12.13;;;8.67;;
18917;SDS011;9591;52.742;13.650;2022-08-19T03:32:27;14.83;;;8.70;;
18917;SDS011;9591;52.742;13.650;2022-08-19T03:35:17;15.00;;;8.60;;
18917;SDS011;9591;52.742;13.650;2022-08-19T03:38:06;14.27;;;8.67;;
18917;SDS011;9591;52.742;13.650;2022-08-19T03:40:53;12.87;;;9.30;;
18917;SDS011;9591;52.742;13.650;2022-08-19T03:43:40;13.80;;;8.97;;
18917;SDS011;9591;52.742;13.650;2022-08-19T03:46:29;13.27;;;7.90;;
18917;SDS011;9591;52.742;13.650;2022-08-19T03:49:17;14.03;;;9.17;;
18917;SDS011;9591;52.742;13.650;2022-08-19T03:52:04;13.90;;;8.40;;
18917;SDS011;9591;52.742;13.650;2022-08-19T03:54:53;12.70;;;9.17;;
18917;SDS011;9591;52.742;13.650;2022-08-19T03:57:40;15.67;;;8.70;;
18917;SDS011;9591;52.742;13.650;2022-08-19T04:00:27;14.97;;;8.97;;
18917;SDS011;9591;52.742;13.650;2022-08-19T04:03:14;18.90;;;9.07;;
18917;SDS011;9591;52.742;13.650;2022-08-19T04:06:09;13.53;;;9.17;;
18917;SDS011;9591;52.742;13.650;2022-08-19T04:08:58;16.43;;;8.77;;
18917;SDS011;9591;52.742;13.650;2022-08-19T04:11:52;15.30;;;8.47;;
18917;SDS011;9591;52.742;13.650;2022-08-19T04:14:40;13.40;;;7.93;;
18917;SDS011;9591;52.742;13.650;2022-08-19T04:17:27;14.97;;;8.67;;
18917;SDS011;9591;52.742;13.650;2022-08-19T04:20:15;14.40;;;9.03;;
18917;SDS011;9591;52.742;13.650;2022-08-19T04:23:08;14.10;;;8.83;;
18917;SDS011;9591;52.742;13.650;2022-08-19T04:25:55;13.27;;;9.00;;
18917;SDS011;9591;52.742;13.650;2022-08-19T04:31:57;13.63;;;8.83;;
18917;SDS011;9591;52.742;13.650;2022-08-19T04:34:54;10.90;;;8.07;;
18917;SDS011;9591;52.742;13.650;2022-08-19T04:37:48;13.27;;;8.97;;
18917;SDS011;9591;52.742;13.650;2022-08-19T04:40:39;15.27;;;8.97;;
18917;SDS011;9591;52.742;13.650;2022-08-19T04:43:44;19.07;;;9.43;;
18917;SDS011;9591;52.742;13.650;2022-08-19T04:46:35;18.97;;;9.73;;
18917;SDS011;9591;52.742;13.650;2022-08-19T04:49:35;12.67;;;8.27;;
18917;SDS011;9591;52.742;13.650;2022-08-19T04:52:22;18.03;;;8.97;;
18917;SDS011;9591;52.742;13.650;2022-08-19T04:55:09;16.80;;;8.63;;
18917;SDS011;9591;52.742;13.650;2022-08-19T04:57:57;13.07;;;8.73;;
18917;SDS011;9591;52.742;13.650;2022-08-19T05:00:50;14.70;;;9.00;;
18917;SDS011;9591;52.742;13.650;2022-08-19T05:03:39;13.43;;;8.90;;
18917;SDS011;9591;52.742;13.650;2022-08-19T05:06:26;15.93;;;9.43;;
18917;SDS011;9591;52.742;13.650;2022-08-19T05:09:19;15.00;;;9.93;;
18917;SDS011;9591;52.742;13.650;2022-08-19T05:12:07;14.77;;;9.93;;
18917;SDS011;9591;52.742;13.650;2022-08-19T05:14:54;17.67;;;9.63;;
18917;SDS011;9591;52.742;13.650;2022-08-19T05:17:43;15.00;;;9.67;;
18917;SDS011;9591;52.742;13.650;2022-08-19T05:20:53;16.27;;;10.30;;
18917;SDS011;9591;52.742;13.650;2022-08-19T05:23:59;19.23;;;10.60;;
18917;SDS011;9591;52.742;13.650;2022-08-19T05:26:48;15.43;;;10.30;;
18917;SDS011;9591;52.742;13.650;2022-08-19T05:29:39;18.27;;;10.80;;
18917;SDS011;9591;52.742;13.650;2022-08-19T05:32:27;16.90;;;11.00;;
18917;SDS011;9591;52.742;13.650;2022-08-19T05:35:15;19.13;;;11.70;;
18917;SDS011;9591;52.742;13.650;2022-08-19T05:38:06;16.33;;;10.83;;
18917;SDS011;9591;52.742;13.650;2022-08-19T05:40:54;16.00;;;11.53;;
18917;SDS011;9591;52.742;13.650;2022-08-19T05:43:42;19.90;;;11.67;;
18917;SDS011;9591;52.742;13.650;2022-08-19T05:46:31;16.90;;;10.53;;
18917;SDS011;9591;52.742;13.650;2022-08-19T05:49:18;18.43;;;11.40;;
18917;SDS011;9591;52.742;13.650;2022-08-19T05:52:06;18.37;;;11.90;;
18917;SDS011;9591;52.742;13.650;2022-08-19T05:54:58;17.70;;;12.10;;
18917;SDS011;9591;52.742;13.650;2022-08-19T05:57:44;16.07;;;11.80;;
18917;SDS011;9591;52.742;13.650;2022-08-19T06:00:31;21.60;;;12.33;;
18917;SDS011;9591;52.742;13.650;2022-08-19T06:03:18;20.80;;;12.13;;
18917;SDS011;9591;52.742;13.650;2022-08-19T06:06:05;19.63;;;12.23;;
18917;SDS011;9591;52.742;13.650;2022-08-19T06:08:54;22.40;;;12.87;;
18917;SDS011;9591;52.742;13.650;2022-08-19T06:11:44;18.33;;;12.77;;
18917;SDS011;9591;52.742;13.650;2022-08-19T06:14:34;19.50;;;12.60;;
18917;SDS011;9591;52.742;13.650;2022-08-19T06:17:26;27.77;;;13.73;;
18917;SDS011;9591;52.742;13.650;2022-08-19T06:20:13;22.20;;;13.13;;
18917;SDS011;9591;52.742;13.650;2022-08-19T06:23:22;23.77;;;12.30;;
18917;SDS011;9591;52.742;13.650;2022-08-19T06:26:11;26.47;;;13.67;;
18917;SDS011;9591;52.742;13.650;2022-08-19T06:28:59;20.33;;;12.97;;
18917;SDS011;9591;52.742;13.650;2022-08-19T06:31:47;23.97;;;13.17;;
18917;SDS011;9591;52.742;13.650;2022-08-19T06:34:35;20.30;;;13.03;;
18917;SDS011;9591;52.742;13.650;2022-08-19T06:37:22;26.97;;;14.60;;
18917;SDS011;9591;52.742;13.650;2022-08-19T06:40:09;21.97;;;14.40;;
18917;SDS011;9591;52.742;13.650;2022-08-19T06:42:58;24.50;;;14.67;;
18917;SDS011;9591;52.742;13.650;2022-08-19T06:45:51;24.17;;;14.23;;
18917;SDS011;9591;52.742;13.650;2022-08-19T06:48:40;23.23;;;15.27;;
18917;SDS011;9591;52.742;13.650;2022-08-19T06:51:29;24.77;;;15.73;;
18917;SDS011;9591;52.742;13.650;2022-08-19T06:54:22;23.10;;;14.37;;
18917;SDS011;9591;52.742;13.650;2022-08-19T06:57:15;24.20;;;15.00;;
18917;SDS011;9591;52.742;13.650;2022-08-19T07:00:02;26.17;;;15.60;;
18917;SDS011;9591;52.742;13.650;2022-08-19T07:02:58;23.40;;;14.57;;
18917;SDS011;9591;52.742;13.650;2022-08-19T07:05:52;33.37;;;15.83;;
18917;SDS011;9591;52.742;13.650;2022-08-19T07:08:39;26.97;;;15.23;;
18917;SDS011;9591;52.742;13.650;2022-08-19T07:11:27;28.33;;;16.27;;
18917;SDS011;9591;52.742;13.650;2022-08-19T07:14:14;28.60;;;15.87;;
18917;SDS011;9591;52.742;13.650;2022-08-19T07:17:05;26.03;;;16.03;;
18917;SDS011;9591;52.742;13.650;2022-08-19T07:19:55;23.50;;;15.50;;
18917;SDS011;9591;52.742;13.650;2022-08-19T07:22:49;27.33;;;16.70;;
18917;SDS011;9591;52.742;13.650;2022-08-19T07:25:38;26.50;;;15.20;;
18917;SDS011;9591;52.742;13.650;2022-08-19T07:28:24;21.23;;;14.27;;
18917;SDS011;9591;52.742;13.650;2022-08-19T07:31:12;24.27;;;15.73;;
18917;SDS011;9591;52.742;13.650;2022-08-19T07:34:04;24.93;;;16.17;;
18917;SDS011;9591;52.742;13.650;2022-08-19T07:36:54;23.43;;;15.33;;
18917;SDS011;9591;52.742;13.650;2022-08-19T07:39:41;24.87;;;16.33;;
18917;SDS011;9591;52.742;13.650;2022-08-19T07:42:28;25.33;;;15.73;;
18917;SDS011;9591;52.742;13.650;2022-08-19T07:45:15;23.03;;;14.90;;
18917;SDS011;9591;52.742;13.650;2022-08-19T07:48:02;25.17;;;15.67;;
18917;SDS011;9591;52.742;13.650;2022-08-19T07:50:49;24.00;;;15.87;;
18917;SDS011;9591;52.742;13.650;2022-08-19T07:53:38;24.80;;;16.30;;
18917;SDS011;9591;52.742;13.650;2022-08-19T07:56:25;24.70;;;15.27;;
18917;SDS011;9591;52.742;13.650;2022-08-19T07:59:12;28.13;;;16.03;;
18917;SDS011;9591;52.742;13.650;2022-08-19T08:01:59;24.53;;;14.97;;
18917;SDS011;9591;52.742;13.650;2022-08-19T08:04:47;25.20;;;16.10;;
18917;SDS011;9591;52.742;13.650;2022-08-19T08:07:51;22.33;;;14.93;;
18917;SDS011;9591;52.742;13.650;2022-08-19T08:10:56;24.23;;;15.87;;
18917;SDS011;9591;52.742;13.650;2022-08-19T08:13:43;25.30;;;15.17;;
18917;SDS011;9591;52.742;13.650;2022-08-19T08:16:30;25.77;;;15.47;;
18917;SDS011;9591;52.742;13.650;2022-08-19T08:19:19;27.50;;;15.97;;
18917;SDS011;9591;52.742;13.650;2022-08-19T08:22:10;22.70;;;15.40;;
18917;SDS011;9591;52.742;13.650;2022-08-19T08:25:19;26.50;;;15.80;;
18917;SDS011;9591;52.742;13.650;2022-08-19T08:28:10;26.33;;;16.03;;
18917;SDS011;9591;52.742;13.650;2022-08-19T08:31:02;27.50;;;16.33;;
18917;SDS011;9591;52.742;13.650;2022-08-19T08:33:53;26.40;;;15.07;;
18917;SDS011;9591;52.742;13.650;2022-08-19T08:36:44;24.33;;;15.23;;
18917;SDS011;9591;52.742;13.650;2022-08-19T08:39:31;25.33;;;15.63;;
18917;SDS011;9591;52.742;13.650;2022-08-19T08:42:19;24.50;;;15.63;;
18917;SDS011;9591;52.742;13.650;2022-08-19T08:45:13;27.07;;;15.10;;
18917;SDS011;9591;52.742;13.650;2022-08-19T08:48:15;23.20;;;14.47;;
18917;SDS011;9591;52.742;13.650;2022-08-19T08:51:10;24.40;;;14.87;;
18917;SDS011;9591;52.742;13.650;2022-08-19T08:54:05;24.77;;;14.83;;
18917;SDS011;9591;52.742;13.650;2022-08-19T08:56:53;23.10;;;14.73;;
18917;SDS011;9591;52.742;13.650;2022-08-19T08:59:41;24.13;;;14.33;;
18917;SDS011;9591;52.742;13.650;2022-08-19T09:02:37;22.37;;;14.23;;
18917;SDS011;9591;52.742;13.650;2022-08-19T09:05:32;19.83;;;13.13;;
18917;SDS011;9591;52.742;13.650;2022-08-19T09:08:38;18.73;;;12.93;;
18917;SDS011;9591;52.742;13.650;2022-08-19T09:11:32;20.67;;;13.33;;
18917;SDS011;9591;52.742;13.650;2022-08-19T09:14:32;21.53;;;13.17;;
18917;SDS011;9591;52.742;13.650;2022-08-19T09:17:35;16.97;;;11.17;;
18917;SDS011;9591;52.742;13.650;2022-08-19T09:20:24;17.33;;;11.83;;
18917;SDS011;9591;52.742;13.650;2022-08-19T09:23:11;15.73;;;11.40;;
18917;SDS011;9591;52.742;13.650;2022-08-19T09:25:57;16.77;;;12.03;;
18917;SDS011;9591;52.742;13.650;2022-08-19T09:28:45;20.83;;;11.50;;
18917;SDS011;9591;52.742;13.650;2022-08-19T09:31:33;16.20;;;11.03;;
18917;SDS011;9591;52.742;13.650;2022-08-19T09:34:22;18.37;;;11.70;;
18917;SDS011;9591;52.742;13.650;2022-08-19T09:37:08;19.07;;;11.23;;
18917;SDS011;9591;52.742;13.650;2022-08-19T09:39:59;20.33;;;12.03;;
18917;SDS011;9591;52.742;13.650;2022-08-19T09:42:46;14.63;;;10.90;;
18917;SDS011;9591;52.742;13.650;2022-08-19T09:45:34;15.80;;;10.70;;
18917;SDS011;9591;52.742;13.650;2022-08-19T09:48:21;12.33;;;9.60;;
18917;SDS011;9591;52.742;13.650;2022-08-19T09:51:11;14.67;;;10.63;;
18917;SDS011;9591;52.742;13.650;2022-08-19T09:54:01;16.03;;;10.27;;
18917;SDS011;9591;52.742;13.650;2022-08-19T09:56:49;16.57;;;11.33;;
18917;SDS011;9591;52.742;13.650;2022-08-19T09:59:36;16.73;;;10.33;;
18917;SDS011;9591;52.742;13.650;2022-08-19T10:02:23;14.77;;;10.70;;
18917;SDS011;9591;52.742;13.650;2022-08-19T10:05:13;17.93;;;10.03;;
18917;SDS011;9591;52.742;13.650;2022-08-19T10:08:20;14.57;;;9.53;;
18917;SDS011;9591;52.742;13.650;2022-08-19T10:11:11;18.43;;;10.30;;
18917;SDS011;9591;52.742;13.650;2022-08-19T10:14:21;14.63;;;10.40;;
18917;SDS011;9591;52.742;13.650;2022-08-19T10:17:08;13.40;;;9.23;;
18917;SDS011;9591;52.742;13.650;2022-08-19T10:20:06;16.60;;;9.63;;
18917;SDS011;9591;52.742;13.650;2022-08-19T10:22:53;14.27;;;10.03;;
18917;SDS011;9591;52.742;13.650;2022-08-19T10:25:41;14.10;;;9.73;;
18917;SDS011;9591;52.742;13.650;2022-08-19T10:28:28;17.33;;;10.53;;
18917;SDS011;9591;52.742;13.650;2022-08-19T10:31:17;18.37;;;10.03;;
18917;SDS011;9591;52.742;13.650;2022-08-19T10:34:26;13.87;;;9.83;;
18917;SDS011;9591;52.742;13.650;2022-08-19T10:37:14;14.63;;;9.93;;
18917;SDS011;9591;52.742;13.650;2022-08-19T10:40:08;14.73;;;9.67;;
18917;SDS011;9591;52.742;13.650;2022-08-19T10:42:58;13.13;;;9.40;;
18917;SDS011;9591;52.742;13.650;2022-08-19T10:45:48;13.50;;;9.87;;
18917;SDS011;9591;52.742;13.650;2022-08-19T10:48:39;18.53;;;10.77;;
18917;SDS011;9591;52.742;13.650;2022-08-19T10:51:26;15.73;;;10.00;;
18917;SDS011;9591;52.742;13.650;2022-08-19T10:54:32;14.33;;;10.17;;
18917;SDS011;9591;52.742;13.650;2022-08-19T10:57:37;16.17;;;9.60;;
18917;SDS011;9591;52.742;13.650;2022-08-19T11:00:51;16.33;;;10.10;;
18917;SDS011;9591;52.742;13.650;2022-08-19T11:03:39;15.40;;;9.83;;
18917;SDS011;9591;52.742;13.650;2022-08-19T11:06:26;17.23;;;10.47;;
18917;SDS011;9591;52.742;13.650;2022-08-19T11:09:14;17.20;;;10.20;;
18917;SDS011;9591;52.742;13.650;2022-08-19T11:12:03;14.63;;;10.37;;
18917;SDS011;9591;52.742;13.650;2022-08-19T11:14:50;16.07;;;9.97;;
18917;SDS011;9591;52.742;13.650;2022-08-19T11:17:39;16.37;;;10.40;;
18917;SDS011;9591;52.742;13.650;2022-08-19T11:20:28;16.63;;;10.87;;
18917;SDS011;9591;52.742;13.650;2022-08-19T11:23:15;12.60;;;9.53;;
18917;SDS011;9591;52.742;13.650;2022-08-19T11:26:02;14.60;;;10.10;;
18917;SDS011;9591;52.742;13.650;2022-08-19T11:28:49;14.40;;;10.20;;
18917;SDS011;9591;52.742;13.650;2022-08-19T11:31:39;15.53;;;10.17;;
18917;SDS011;9591;52.742;13.650;2022-08-19T11:34:30;11.87;;;9.57;;
18917;SDS011;9591;52.742;13.650;2022-08-19T11:37:18;15.97;;;11.17;;
18917;SDS011;9591;52.742;13.650;2022-08-19T11:40:05;14.27;;;9.57;;
18917;SDS011;9591;52.742;13.650;2022-08-19T11:42:53;13.33;;;9.17;;
18917;SDS011;9591;52.742;13.650;2022-08-19T11:45:43;15.07;;;9.30;;
18917;SDS011;9591;52.742;13.650;2022-08-19T11:48:31;15.20;;;9.33;;
18917;SDS011;9591;52.742;13.650;2022-08-19T11:51:20;13.63;;;9.20;;
18917;SDS011;9591;52.742;13.650;2022-08-19T11:54:09;15.30;;;9.50;;
18917;SDS011;9591;52.742;13.650;2022-08-19T11:56:57;15.70;;;10.03;;
18917;SDS011;9591;52.742;13.650;2022-08-19T11:59:47;13.37;;;9.53;;
18917;SDS011;9591;52.742;13.650;2022-08-19T12:02:35;11.70;;;9.47;;
18917;SDS011;9591;52.742;13.650;2022-08-19T12:05:22;14.17;;;9.83;;
18917;SDS011;9591;52.742;13.650;2022-08-19T12:08:10;13.43;;;9.40;;
18917;SDS011;9591;52.742;13.650;2022-08-19T12:10:57;16.87;;;10.00;;
18917;SDS011;9591;52.742;13.650;2022-08-19T12:13:46;14.53;;;10.60;;
18917;SDS011;9591;52.742;13.650;2022-08-19T12:16:33;15.53;;;9.63;;
18917;SDS011;9591;52.742;13.650;2022-08-19T12:19:25;16.97;;;10.37;;
18917;SDS011;9591;52.742;13.650;2022-08-19T12:22:12;15.73;;;10.27;;
18917;SDS011;9591;52.742;13.650;2022-08-19T12:25:00;15.40;;;10.40;;
18917;SDS011;9591;52.742;13.650;2022-08-19T12:27:47;16.43;;;10.97;;
18917;SDS011;9591;52.742;13.650;2022-08-19T12:30:42;14.17;;;10.50;;
18917;SDS011;9591;52.742;13.650;2022-08-19T12:33:30;17.53;;;10.20;;
18917;SDS011;9591;52.742;13.650;2022-08-19T12:36:18;17.17;;;10.80;;
18917;SDS011;9591;52.742;13.650;2022-08-19T12:39:08;17.57;;;10.43;;
18917;SDS011;9591;52.742;13.650;2022-08-19T12:41:59;14.50;;;10.47;;
18917;SDS011;9591;52.742;13.650;2022-08-19T12:44:47;17.90;;;10.47;;
18917;SDS011;9591;52.742;13.650;2022-08-19T12:47:35;16.83;;;10.87;;
18917;SDS011;9591;52.742;13.650;2022-08-19T12:50:24;14.90;;;9.90;;
18917;SDS011;9591;52.742;13.650;2022-08-19T12:53:12;15.57;;;9.97;;
18917;SDS011;9591;52.742;13.650;2022-08-19T12:55:59;15.53;;;10.10;;
18917;SDS011;9591;52.742;13.650;2022-08-19T12:58:47;14.13;;;9.57;;
18917;SDS011;9591;52.742;13.650;2022-08-19T13:01:37;13.13;;;9.30;;
18917;SDS011;9591;52.742;13.650;2022-08-19T13:04:23;17.87;;;10.60;;
18917;SDS011;9591;52.742;13.650;2022-08-19T13:07:10;19.40;;;10.23;;
18917;SDS011;9591;52.742;13.650;2022-08-19T13:09:57;13.43;;;10.30;;
18917;SDS011;9591;52.742;13.650;2022-08-19T13:12:44;12.87;;;9.87;;
18917;SDS011;9591;52.742;13.650;2022-08-19T13:15:34;12.83;;;9.93;;
18917;SDS011;9591;52.742;13.650;2022-08-19T13:18:22;12.67;;;9.80;;
18917;SDS011;9591;52.742;13.650;2022-08-19T13:21:09;13.80;;;9.77;;
18917;SDS011;9591;52.742;13.650;2022-08-19T13:23:58;11.97;;;9.17;;
18917;SDS011;9591;52.742;13.650;2022-08-19T13:26:45;12.43;;;9.83;;
18917;SDS011;9591;52.742;13.650;2022-08-19T13:29:32;11.97;;;9.60;;
18917;SDS011;9591;52.742;13.650;2022-08-19T13:32:49;14.10;;;9.00;;
18917;SDS011;9591;52.742;13.650;2022-08-19T13:35:56;15.47;;;9.77;;
18917;SDS011;9591;52.742;13.650;2022-08-19T13:38:45;12.13;;;8.87;;
18917;SDS011;9591;52.742;13.650;2022-08-19T13:41:32;12.63;;;9.30;;
18917;SDS011;9591;52.742;13.650;2022-08-19T13:44:19;13.73;;;9.77;;
18917;SDS011;9591;52.742;13.650;2022-08-19T13:47:06;12.57;;;9.60;;
18917;SDS011;9591;52.742;13.650;2022-08-19T13:49:56;13.27;;;9.87;;
18917;SDS011;9591;52.742;13.650;2022-08-19T13:52:43;14.93;;;9.70;;
18917;SDS011;9591;52.742;13.650;2022-08-19T13:55:30;16.40;;;9.57;;
18917;SDS011;9591;52.742;13.650;2022-08-19T13:58:17;15.37;;;10.67;;
18917;SDS011;9591;52.742;13.650;2022-08-19T14:01:04;15.87;;;10.43;;
18917;SDS011;9591;52.742;13.650;2022-08-19T14:03:51;14.67;;;10.30;;
18917;SDS011;9591;52.742;13.650;2022-08-19T14:06:39;13.10;;;9.63;;
18917;SDS011;9591;52.742;13.650;2022-08-19T14:09:25;12.50;;;9.83;;
18917;SDS011;9591;52.742;13.650;2022-08-19T14:12:12;19.57;;;10.67;;
18917;SDS011;9591;52.742;13.650;2022-08-19T14:15:13;13.17;;;9.30;;
18917;SDS011;9591;52.742;13.650;2022-08-19T14:18:00;18.87;;;10.30;;
18917;SDS011;9591;52.742;13.650;2022-08-19T14:20:47;14.10;;;9.80;;
18917;SDS011;9591;52.742;13.650;2022-08-19T14:23:35;15.37;;;10.43;;
18917;SDS011;9591;52.742;13.650;2022-08-19T14:26:22;12.90;;;9.90;;
18917;SDS011;9591;52.742;13.650;2022-08-19T14:29:09;14.30;;;10.40;;
18917;SDS011;9591;52.742;13.650;2022-08-19T14:31:56;14.23;;;9.90;;
18917;SDS011;9591;52.742;13.650;2022-08-19T14:34:43;13.47;;;9.90;;
18917;SDS011;9591;52.742;13.650;2022-08-19T14:37:32;14.13;;;9.57;;
18917;SDS011;9591;52.742;13.650;2022-08-19T14:40:31;14.33;;;10.27;;
18917;SDS011;9591;52.742;13.650;2022-08-19T14:43:18;15.60;;;9.53;;
18917;SDS011;9591;52.742;13.650;2022-08-19T14:46:05;14.37;;;10.00;;
18917;SDS011;9591;52.742;13.650;2022-08-19T14:48:54;11.90;;;9.37;;
18917;SDS011;9591;52.742;13.650;2022-08-19T14:51:44;13.10;;;9.27;;
18917;SDS011;9591;52.742;13.650;2022-08-19T14:54:31;15.73;;;10.20;;
18917;SDS011;9591;52.742;13.650;2022-08-19T14:57:20;15.00;;;9.83;;
18917;SDS011;9591;52.742;13.650;2022-08-19T15:00:07;15.20;;;9.63;;
18917;SDS011;9591;52.742;13.650;2022-08-19T15:02:58;13.43;;;9.33;;
18917;SDS011;9591;52.742;13.650;2022-08-19T15:05:48;13.63;;;8.93;;
18917;SDS011;9591;52.742;13.650;2022-08-19T15:08:36;12.73;;;9.03;;
18917;SDS011;9591;52.742;13.650;2022-08-19T15:11:24;11.33;;;8.77;;
18917;SDS011;9591;52.742;13.650;2022-08-19T15:14:14;15.30;;;9.13;;
18917;SDS011;9591;52.742;13.650;2022-08-19T15:17:02;14.63;;;9.10;;
18917;SDS011;9591;52.742;13.650;2022-08-19T15:19:49;17.83;;;10.07;;
18917;SDS011;9591;52.742;13.650;2022-08-19T15:22:36;14.23;;;9.00;;
18917;SDS011;9591;52.742;13.650;2022-08-19T15:25:23;14.83;;;9.40;;
18917;SDS011;9591;52.742;13.650;2022-08-19T15:28:11;13.83;;;8.80;;
18917;SDS011;9591;52.742;13.650;2022-08-19T15:31:02;16.87;;;9.30;;
18917;SDS011;9591;52.742;13.650;2022-08-19T15:34:03;12.40;;;9.07;;
18917;SDS011;9591;52.742;13.650;2022-08-19T15:36:51;12.97;;;9.10;;
18917;SDS011;9591;52.742;13.650;2022-08-19T15:39:38;15.17;;;8.87;;
18917;SDS011;9591;52.742;13.650;2022-08-19T15:42:25;13.93;;;8.40;;
18917;SDS011;9591;52.742;13.650;2022-08-19T15:45:15;12.43;;;8.53;;
18917;SDS011;9591;52.742;13.650;2022-08-19T15:48:08;15.27;;;9.00;;
18917;SDS011;9591;52.742;13.650;2022-08-19T15:50:55;12.00;;;8.80;;
18917;SDS011;9591;52.742;13.650;2022-08-19T15:53:42;11.07;;;8.53;;
18917;SDS011;9591;52.742;13.650;2022-08-19T15:56:29;15.47;;;9.10;;
18917;SDS011;9591;52.742;13.650;2022-08-19T15:59:42;12.77;;;8.90;;
18917;SDS011;9591;52.742;13.650;2022-08-19T16:02:48;13.07;;;8.67;;
18917;SDS011;9591;52.742;13.650;2022-08-19T16:05:54;12.57;;;8.57;;
18917;SDS011;9591;52.742;13.650;2022-08-19T16:08:59;12.90;;;8.90;;
18917;SDS011;9591;52.742;13.650;2022-08-19T16:11:48;14.47;;;9.17;;
18917;SDS011;9591;52.742;13.650;2022-08-19T16:14:41;14.97;;;9.00;;
18917;SDS011;9591;52.742;13.650;2022-08-19T16:17:27;12.30;;;8.63;;
18917;SDS011;9591;52.742;13.650;2022-08-19T16:20:14;11.23;;;8.33;;
18917;SDS011;9591;52.742;13.650;2022-08-19T16:23:05;12.23;;;9.10;;
18917;SDS011;9591;52.742;13.650;2022-08-19T16:25:52;12.90;;;8.27;;
18917;SDS011;9591;52.742;13.650;2022-08-19T16:28:39;13.20;;;8.37;;
18917;SDS011;9591;52.742;13.650;2022-08-19T16:31:27;13.13;;;8.90;;
18917;SDS011;9591;52.742;13.650;2022-08-19T16:34:14;12.33;;;8.43;;
18917;SDS011;9591;52.742;13.650;2022-08-19T16:37:01;13.33;;;9.40;;
18917;SDS011;9591;52.742;13.650;2022-08-19T16:39:49;11.33;;;8.87;;
18917;SDS011;9591;52.742;13.650;2022-08-19T16:42:36;13.27;;;8.90;;
18917;SDS011;9591;52.742;13.650;2022-08-19T16:45:24;15.77;;;9.70;;